Terminal Aerodrome Forecast
Issued by NWS Charleston, WV

Current Version | Previous Version | Text Only | Print | Product List | Glossary Off
Versions: 1 2 3 4 5 6 7 8 9 10 11 12 13 14 15 16 17 18 19 20 21 22

589
FTUS41 KRLX 200248 AAA
TAFEKN
TAF AMD
KEKN 200248Z 2003/2024 00000KT P6SM BKN027 OVC035
     FM200500 VRB03KT 4SM BR BKN020
     FM201200 26004KT P6SM BKN100
     FM202200 24005KT P6SM -SHRA BKN040=

USA.gov is the U.S. government's official web portal to all federal, state and local government web resources and services.